createdAt,value
2023-02-22T00:00:24.347Z,10.433333
2023-02-22T00:05:27.399Z,10.245455
2023-02-22T00:10:30.777Z,10.118182
2023-02-22T00:15:21.584Z,10.125000
2023-02-22T00:20:24.708Z,10.200000
2023-02-22T00:25:28.756Z,10.200000
2023-02-22T00:30:18.974Z,10.200000
2023-02-22T00:35:22.018Z,10.200000
2023-02-22T00:40:25.179Z,10.200000
2023-02-22T00:45:28.709Z,10.200000
2023-02-22T00:50:19.322Z,10.090000
2023-02-22T00:55:22.509Z,9.657143
2023-02-22T01:00:25.584Z,9.200000
2023-02-22T01:05:28.938Z,8.972727
2023-02-22T01:10:19.767Z,9.000000
2023-02-22T01:15:22.997Z,8.987500
2023-02-22T01:20:28.722Z,8.854545
2023-02-22T01:25:29.418Z,8.800000
2023-02-22T01:30:20.254Z,8.630769
2023-02-22T01:35:23.324Z,8.200000
2023-02-22T01:40:29.247Z,7.761538
2023-02-22T01:45:29.654Z,7.518182
2023-02-22T01:50:20.567Z,7.500000
2023-02-22T01:55:23.754Z,7.420000
2023-02-22T02:00:29.188Z,7.469231
2023-02-22T02:05:29.967Z,7.637500
2023-02-22T02:10:21.028Z,7.840000
2023-02-22T02:15:24.090Z,7.800000
2023-02-22T02:20:29.301Z,7.720000
2023-02-22T02:25:30.452Z,7.858333
2023-02-22T02:30:21.540Z,7.866667
2023-02-22T02:35:24.660Z,7.670000
2023-02-22T02:40:29.805Z,7.572727
2023-02-22T02:45:30.919Z,7.733333
2023-02-22T02:50:22.217Z,7.650000
2023-02-22T02:55:24.965Z,7.281818
2023-02-22T03:00:29.689Z,7.125000
2023-02-22T03:05:19.049Z,7.000000
2023-02-22T03:10:22.333Z,6.954545
2023-02-22T03:15:25.435Z,6.900000
2023-02-22T03:20:29.626Z,6.833333
2023-02-22T03:25:19.557Z,6.940000
2023-02-22T03:30:22.847Z,7.380000
2023-02-22T03:35:25.874Z,7.275000
2023-02-22T03:40:30.152Z,6.400000
2023-02-22T03:45:20.038Z,5.609091
2023-02-22T03:50:23.302Z,5.533333
2023-02-22T03:55:26.238Z,5.600000
2023-02-22T04:00:30.123Z,5.692308
2023-02-22T04:05:20.833Z,5.830000
2023-02-22T04:10:23.504Z,6.200000
2023-02-22T04:15:26.739Z,6.627273
2023-02-22T04:20:30.210Z,6.972727
2023-02-22T04:25:20.845Z,7.090909
2023-02-22T04:30:23.973Z,7.391667
2023-02-22T04:35:30.683Z,7.730000
2023-02-22T04:40:30.527Z,7.820000
2023-02-22T04:45:21.398Z,7.580000
2023-02-22T04:50:24.437Z,7.545455
2023-02-22T04:55:30.503Z,7.945455
2023-02-22T05:00:30.768Z,8.291667
2023-02-22T05:05:21.695Z,8.254545
2023-02-22T05:10:24.823Z,8.416667
2023-02-22T05:15:30.642Z,8.863636
2023-02-22T05:20:19.867Z,9.141667
2023-02-22T05:25:22.256Z,9.190909
2023-02-22T05:30:25.546Z,8.344444
2023-02-22T05:35:30.719Z,7.260000
2023-02-22T05:40:19.470Z,6.612500
2023-02-22T05:45:18.920Z,6.441667
2023-02-22T05:50:18.917Z,6.841667
2023-02-22T05:55:18.962Z,7.063636
2023-02-22T06:00:19.874Z,6.827273
2023-02-22T06:05:18.895Z,6.800000
2023-02-22T06:10:18.859Z,6.800000
2023-02-22T06:15:18.945Z,6.827273
2023-02-22T06:20:20.186Z,6.990000
2023-02-22T06:25:18.966Z,7.260000
2023-02-22T06:30:19.023Z,7.454545
2023-02-22T06:35:19.008Z,7.700000
2023-02-22T06:40:20.687Z,8.069231
2023-02-22T06:45:19.292Z,8.454545
2023-02-22T06:50:19.291Z,8.769231
2023-02-22T06:55:19.388Z,9.070000
2023-02-22T07:00:21.136Z,9.400000
2023-02-22T07:05:24.274Z,9.641667
2023-02-22T07:10:19.298Z,9.866667
2023-02-22T07:15:31.309Z,10.191667
2023-02-22T07:20:21.564Z,10.683333
2023-02-22T07:25:19.376Z,10.977778
2023-02-22T07:30:19.427Z,11.133333
2023-02-22T07:35:19.442Z,11.500000
2023-02-22T07:40:22.097Z,11.940000
2023-02-22T07:45:19.790Z,12.100000
2023-02-22T07:50:19.673Z,11.970000
2023-02-22T07:55:19.744Z,11.772727
2023-02-22T08:00:24.243Z,11.700000
2023-02-22T08:05:25.714Z,11.700000
2023-02-22T08:10:19.840Z,11.830000
2023-02-22T08:15:19.766Z,12.060000
2023-02-22T08:20:19.831Z,12.345455
2023-02-22T08:25:19.730Z,12.620000
2023-02-22T08:30:19.784Z,12.791667
2023-02-22T08:35:20.477Z,12.820000
2023-02-22T08:40:20.162Z,12.800000
2023-02-22T08:45:20.154Z,13.090000
2023-02-22T08:50:20.225Z,13.554545
2023-02-22T08:55:20.741Z,13.250000
2023-02-22T09:00:20.251Z,12.688889
2023-02-22T09:05:20.307Z,12.045455
2023-02-22T09:10:20.140Z,11.492308
2023-02-22T09:15:21.232Z,10.936364
2023-02-22T09:20:20.227Z,10.675000
2023-02-22T09:25:20.201Z,10.633333
2023-02-22T09:30:20.292Z,10.646154
2023-02-22T09:35:22.074Z,10.766667
2023-02-22T09:40:20.098Z,10.892308
2023-02-22T09:45:20.180Z,10.900000
2023-02-22T09:50:20.257Z,10.900000
2023-02-22T09:55:22.392Z,10.900000
2023-02-22T10:00:20.239Z,10.750000
2023-02-22T10:05:20.287Z,10.550000
2023-02-22T10:10:19.969Z,10.508333
2023-02-22T10:15:22.847Z,10.650000
2023-02-22T10:20:20.390Z,10.866667
2023-02-22T10:25:20.249Z,11.045455
2023-02-22T10:30:25.090Z,11.254545
2023-02-22T10:35:20.182Z,11.233333
2023-02-22T10:40:20.254Z,11.112500
2023-02-22T10:45:20.199Z,11.116667
2023-02-22T10:50:21.047Z,11.254545
2023-02-22T10:55:20.446Z,11.300000
2023-02-22T11:00:20.254Z,11.300000
2023-02-22T11:05:20.372Z,11.260000
2023-02-22T11:10:21.437Z,11.100000
2023-02-22T11:15:20.217Z,11.100000
2023-02-22T11:20:20.485Z,11.230000
2023-02-22T11:25:20.278Z,11.410000
2023-02-22T11:30:22.405Z,11.500000
2023-02-22T11:35:20.889Z,11.500000
2023-02-22T11:40:20.395Z,11.371429
2023-02-22T11:45:20.459Z,11.300000
2023-02-22T11:50:22.723Z,11.381818
2023-02-22T11:55:26.766Z,11.475000
2023-02-22T12:00:20.236Z,11.541667
2023-02-22T12:05:20.074Z,11.500000
2023-02-22T12:10:23.355Z,11.566667
2023-02-22T12:15:20.199Z,11.750000
2023-02-22T12:20:20.212Z,11.800000
2023-02-22T12:25:20.645Z,11.655556
2023-02-22T12:30:20.269Z,11.518182
2023-02-22T12:35:20.669Z,11.454545
2023-02-22T12:40:20.173Z,11.366667
2023-02-22T12:45:21.086Z,11.300000
2023-02-22T12:50:20.281Z,11.300000
2023-02-22T12:55:20.295Z,11.355556
2023-02-22T13:00:20.346Z,11.400000
2023-02-22T13:05:21.699Z,11.400000
2023-02-22T13:10:24.676Z,11.369231
2023-02-22T13:15:20.241Z,11.277778
2023-02-22T13:20:20.248Z,11.154545
2023-02-22T13:25:22.231Z,11.000000
2023-02-22T13:30:20.336Z,10.866667
2023-02-22T13:35:20.274Z,10.875000
2023-02-22T13:40:20.155Z,10.984615
2023-02-22T13:45:22.502Z,11.155556
2023-02-22T13:50:20.169Z,11.236364
2023-02-22T13:55:20.189Z,11.300000
2023-02-22T14:00:20.221Z,11.290909
2023-02-22T14:05:23.044Z,11.200000
2023-02-22T14:10:20.253Z,11.209091
2023-02-22T14:15:30.149Z,11.300000
2023-02-22T14:20:20.224Z,11.216667
2023-02-22T14:25:28.068Z,11.085714
2023-02-22T14:30:20.327Z,10.730769
2023-02-22T14:35:27.390Z,10.322222
2023-02-22T14:40:20.960Z,9.990000
2023-02-22T14:45:20.195Z,9.833333
2023-02-22T14:50:20.240Z,9.650000
2023-02-22T14:55:20.274Z,9.450000
2023-02-22T15:00:21.249Z,9.233333
2023-02-22T15:05:20.425Z,9.075000
2023-02-22T15:10:20.264Z,8.958333
2023-02-22T15:15:20.218Z,8.780000
2023-02-22T15:20:21.597Z,8.672727
2023-02-22T15:25:20.276Z,8.600000
2023-02-22T15:30:28.478Z,8.530769
2023-02-22T15:35:20.331Z,8.410000
2023-02-22T15:40:22.595Z,8.300000
2023-02-22T15:45:20.762Z,8.191667
2023-02-22T15:50:28.781Z,8.100000
2023-02-22T15:55:20.747Z,7.963636
2023-02-22T16:00:22.963Z,7.830000
2023-02-22T16:05:20.717Z,7.630000
2023-02-22T16:10:20.702Z,7.390909
2023-02-22T16:15:20.675Z,7.145455
2023-02-22T16:20:23.622Z,6.907692
2023-02-22T16:25:20.818Z,6.725000
2023-02-22T16:30:32.952Z,6.554545
2023-02-22T16:35:21.189Z,6.400000
2023-02-22T16:40:21.005Z,6.270000
2023-02-22T16:45:27.367Z,6.127273
2023-02-22T16:50:21.182Z,6.100000
2023-02-22T16:55:21.542Z,6.127273
2023-02-22T17:00:21.184Z,6.292308
2023-02-22T17:05:21.051Z,6.400000
2023-02-22T17:10:21.074Z,6.358333
2023-02-22T17:15:21.972Z,6.300000
2023-02-22T17:20:21.115Z,6.366667
2023-02-22T17:25:21.168Z,6.560000
2023-02-22T17:30:23.818Z,6.783333
2023-02-22T17:35:22.862Z,6.900000
2023-02-22T17:40:21.647Z,6.900000
2023-02-22T17:45:21.677Z,6.900000
2023-02-22T17:50:21.640Z,6.875000
2023-02-22T17:55:23.543Z,6.760000
2023-02-22T18:00:21.577Z,6.700000
2023-02-22T18:05:21.608Z,6.700000
2023-02-22T18:10:21.547Z,6.700000
2023-02-22T18:15:23.690Z,6.655556
2023-02-22T18:20:21.634Z,6.591667
2023-02-22T18:25:21.698Z,6.500000
2023-02-22T18:30:21.629Z,6.525000
2023-02-22T18:35:24.291Z,6.600000
2023-02-22T18:40:21.929Z,6.700000
2023-02-22T18:45:21.983Z,6.800000
2023-02-22T18:50:21.439Z,6.870000
2023-02-22T18:55:24.670Z,6.870000
2023-02-22T19:00:22.042Z,6.800000
2023-02-22T19:05:18.760Z,6.800000
2023-02-22T19:10:22.101Z,6.825000
2023-02-22T19:15:22.071Z,6.900000
2023-02-22T19:20:22.016Z,6.900000
2023-02-22T19:25:22.052Z,6.875000
2023-02-22T19:30:22.427Z,6.800000
2023-02-22T19:35:22.125Z,6.800000
2023-02-22T19:40:28.759Z,6.900000
2023-02-22T19:45:22.619Z,6.900000
2023-02-22T19:50:22.894Z,6.900000
2023-02-22T19:55:22.507Z,6.900000
2023-02-22T20:00:22.791Z,6.845455
2023-02-22T20:05:20.169Z,6.800000
2023-02-22T20:10:23.255Z,6.741667
2023-02-22T20:15:22.504Z,6.700000
2023-02-22T20:20:22.544Z,6.700000
2023-02-22T20:25:20.724Z,6.700000
2023-02-22T20:30:23.946Z,6.700000
2023-02-22T20:35:22.391Z,6.700000
2023-02-22T20:40:23.170Z,6.772727
2023-02-22T20:45:23.044Z,6.800000
2023-02-22T20:50:25.502Z,6.750000
2023-02-22T20:55:22.983Z,6.666667
2023-02-22T21:00:22.943Z,6.566667
2023-02-22T21:05:22.996Z,6.475000
2023-02-22T21:10:24.631Z,6.358333
2023-02-22T21:15:23.064Z,6.240000
2023-02-22T21:20:18.829Z,6.115385
2023-02-22T21:25:22.870Z,5.981818
2023-02-22T21:30:27.445Z,5.900000
2023-02-22T21:35:22.979Z,5.900000
2023-02-22T21:40:19.567Z,5.900000
2023-02-22T21:45:23.355Z,5.900000
2023-02-22T21:50:25.890Z,5.900000
2023-02-22T21:55:23.321Z,5.900000
2023-02-22T22:00:20.001Z,5.887500
2023-02-22T22:05:23.397Z,5.755556
2023-02-22T22:10:26.174Z,5.620000
2023-02-22T22:15:29.303Z,5.400000
2023-02-22T22:20:20.322Z,5.245455
2023-02-22T22:25:23.780Z,5.070000
2023-02-22T22:30:23.357Z,4.846154
2023-02-22T22:35:23.583Z,4.654545
2023-02-22T22:40:23.761Z,4.654545
2023-02-22T22:45:24.141Z,4.820000
2023-02-22T22:50:27.369Z,5.053846
2023-02-22T22:55:23.894Z,5.355556
2023-02-22T23:00:24.037Z,5.618182
2023-02-22T23:05:24.762Z,5.800000
2023-02-22T23:10:23.806Z,5.900000
2023-02-22T23:15:23.764Z,5.900000
2023-02-22T23:20:23.785Z,5.900000
2023-02-22T23:25:25.501Z,5.900000
2023-02-22T23:30:23.819Z,5.900000
2023-02-22T23:35:19.500Z,5.900000
2023-02-22T23:40:24.253Z,5.916667
2023-02-22T23:45:25.677Z,6.000000
2023-02-22T23:50:24.167Z,5.936364
2023-02-22T23:55:19.883Z,5.960000
